aviador You're here:

KBHB Decoded Metar

BAR HARBOR in ME, USA
Report Time2017-09-20 19:56:00
UTC Time2017-09-20 20:06:52
Flight Rules vfr VFR
Wind020° at 11 kt
W.Decomp.*RWY 04: 11.0 kt HW 0.2 kt LCW
RWY 35: 7.2 kt HW 8.3 kt RCW
W.Rank020° ranks 12
Current wind is above 020° avg. (7.9)
Visibility9999 m
Phenomena:N/A
Clouds:Few 025 Hf
Expected CloudBase > 2,000 ft AGL from Temp-Dew spread
CeilingNone
Temp24°C (ISA +9)
Dew Point19°C (74% RH)
AAT23.3°C
QNH1014 hPa
Density Alt1,407 ft
Elevation85 ft
Report Wrong Elevation
Raw Report
KBHB 201956Z AUTO 02011KT 10SM FEW025 24/19 A2994 RMK AO2 SLP141
T02390194 PNO $=

Extra information for KBHB:More info

Metar Taf Metar & Taf Last 4 Metars F.Rules Stats Wind Profile Meteogram Temp Stats Airport Information Weather charts Add Link Nearby VenuesMetar ALERT Operation Metar Decoded Social comments

AIRNAV info for KBHB